Time;durP1;ratioP1;P1;durP2;ratioP2;P2;SDS_P1;SDS_P2;PMS_P1;PMS_P2;Temp;Humidity;BMP_temperature;BMP_pressure;BME280_temperature;BME280_humidity;BME280_pressure;Samples;Min_cycle;Max_cycle;Signal;HPM_P1;HPM_P2
2022/10/12 00:00:13;;;;;;;8.40;8.20;;;12.40;99.90;;;;;;5137111;28;20239;-76
2022/10/12 00:02:41;;;;;;;8.50;8.30;;;12.50;99.90;;;;;;5137692;27;20288;-77
2022/10/12 00:05:10;;;;;;;8.40;8.20;;;12.40;99.90;;;;;;5141148;27;20230;-76
2022/10/12 00:07:37;;;;;;;8.80;8.60;;;12.40;99.90;;;;;;5148657;27;20248;-79
2022/10/12 00:10:06;;;;;;;8.70;8.50;;;12.30;99.90;;;;;;5145385;27;20229;-77
2022/10/12 00:12:34;;;;;;;8.90;8.70;;;12.30;99.90;;;;;;5136338;28;20213;-77
2022/10/12 00:15:02;;;;;;;8.73;8.53;;;12.30;99.90;;;;;;5136204;28;20237;-76
2022/10/12 00:17:29;;;;;;;8.60;8.40;;;12.30;99.90;;;;;;5135786;28;20239;-77
2022/10/12 00:19:57;;;;;;;8.60;8.40;;;12.30;99.90;;;;;;5130708;28;20327;-76
2022/10/12 00:22:26;;;;;;;8.93;8.73;;;12.30;99.90;;;;;;5124748;28;20229;-77
2022/10/12 00:24:53;;;;;;;8.60;8.40;;;12.20;99.90;;;;;;5119818;28;20257;-76
2022/10/12 00:27:21;;;;;;;8.90;8.70;;;12.10;99.90;;;;;;5120534;28;20287;-77
2022/10/12 00:29:48;;;;;;;8.90;8.70;;;12.10;99.90;;;;;;5119617;28;20243;-77
2022/10/12 00:32:17;;;;;;;8.90;8.70;;;12.10;99.90;;;;;;5119186;28;20268;-77
2022/10/12 00:34:45;;;;;;;8.50;8.30;;;12.10;99.90;;;;;;5118854;28;20225;-77
2022/10/12 00:37:12;;;;;;;8.70;8.50;;;12.10;99.90;;;;;;5118937;28;20240;-77
2022/10/12 00:39:41;;;;;;;8.70;8.50;;;12.10;99.90;;;;;;5118622;28;20239;-77
2022/10/12 00:42:11;;;;;;;9.20;8.90;;;12.10;99.90;;;;;;5117970;28;20288;-77
2022/10/12 00:44:43;;;;;;;9.00;8.80;;;12.10;99.90;;;;;;5117993;28;20228;-77
2022/10/12 00:47:22;;;;;;;8.77;8.57;;;12.10;99.90;;;;;;5118434;28;20232;-77
2022/10/12 00:49:56;;;;;;;8.80;8.60;;;12.10;99.90;;;;;;5118418;28;20220;-77
2022/10/12 00:52:31;;;;;;;8.40;8.20;;;12.10;99.90;;;;;;5136323;27;20224;-77
2022/10/12 00:55:01;;;;;;;8.30;8.10;;;12.10;99.90;;;;;;5138125;27;20231;-77
2022/10/12 00:57:30;;;;;;;8.20;8.00;;;12.10;99.90;;;;;;5139175;27;20243;-77
2022/10/12 01:00:02;;;;;;;8.20;8.00;;;12.10;99.90;;;;;;5138621;27;20240;-77
2022/10/12 01:02:33;;;;;;;8.30;8.10;;;12.10;99.90;;;;;;5139215;27;20254;-77
2022/10/12 01:05:01;;;;;;;8.37;8.17;;;12.00;99.90;;;;;;5138241;27;20236;-77
2022/10/12 01:07:28;;;;;;;8.40;8.20;;;12.00;99.90;;;;;;5138695;27;20238;-76
2022/10/12 01:09:55;;;;;;;8.30;8.10;;;11.90;99.90;;;;;;5138160;27;20330;-76
2022/10/12 01:12:26;;;;;;;8.40;8.20;;;11.90;99.90;;;;;;5138391;27;20242;-76
2022/10/12 01:14:54;;;;;;;8.50;8.30;;;11.90;99.90;;;;;;5137835;27;20346;-77
2022/10/12 01:17:38;;;;;;;8.20;8.00;;;11.90;99.90;;;;;;5136139;27;20235;-76
2022/10/12 01:20:42;;;;;;;8.23;8.03;;;11.90;99.90;;;;;;5128340;27;20294;-77
2022/10/12 01:24:01;;;;;;;8.50;8.30;;;11.90;99.90;;;;;;5116895;28;20245;-76
2022/10/12 01:27:03;;;;;;;8.50;8.30;;;11.90;99.90;;;;;;5038796;28;20237;-76
2022/10/12 01:30:06;;;;;;;8.50;8.30;;;11.90;99.90;;;;;;5133583;27;20255;-76
2022/10/12 01:32:54;;;;;;;8.60;8.40;;;11.80;99.90;;;;;;5136183;27;20235;-76
2022/10/12 01:35:29;;;;;;;9.10;8.80;;;11.80;99.90;;;;;;5145090;27;20219;-77
2022/10/12 01:38:11;;;;;;;8.60;8.40;;;11.80;99.90;;;;;;5163086;27;20235;-76
2022/10/12 01:40:46;;;;;;;8.60;8.40;;;11.80;99.90;;;;;;5162172;27;20232;-77
2022/10/12 01:43:17;;;;;;;8.60;8.40;;;11.80;99.90;;;;;;5162961;27;20227;-76
2022/10/12 01:45:46;;;;;;;8.60;8.40;;;11.80;99.90;;;;;;5161897;27;20226;-76
2022/10/12 01:48:14;;;;;;;8.80;8.60;;;11.80;99.90;;;;;;5162281;27;20235;-77
2022/10/12 01:50:50;;;;;;;8.80;8.60;;;11.70;99.90;;;;;;5161732;27;20241;-76
2022/10/12 01:53:28;;;;;;;8.60;8.40;;;11.60;99.90;;;;;;5162036;27;20226;-76
2022/10/12 01:56:03;;;;;;;8.60;8.40;;;11.60;99.90;;;;;;5161520;27;20251;-76
2022/10/12 01:58:43;;;;;;;8.60;8.40;;;11.50;99.90;;;;;;5162091;27;20233;-76
2022/10/12 02:01:21;;;;;;;8.70;8.50;;;11.50;99.90;;;;;;5161455;27;20302;-79
2022/10/12 02:03:56;;;;;;;8.60;8.40;;;11.50;99.90;;;;;;5161434;27;20271;-76
2022/10/12 02:06:30;;;;;;;8.70;8.50;;;11.50;99.90;;;;;;5160722;27;20210;-76
2022/10/12 02:09:06;;;;;;;8.80;8.60;;;11.40;99.90;;;;;;5161456;27;20235;-76
2022/10/12 02:11:38;;;;;;;8.77;8.57;;;11.30;99.90;;;;;;5161651;27;20227;-78
2022/10/12 02:14:12;;;;;;;8.53;8.33;;;11.10;99.90;;;;;;5160609;27;20280;-76
2022/10/12 02:16:46;;;;;;;8.50;8.30;;;11.10;99.90;;;;;;5160807;27;20218;-77
2022/10/12 02:19:19;;;;;;;8.63;8.43;;;11.10;99.90;;;;;;5161125;27;20227;-76
2022/10/12 02:21:49;;;;;;;8.73;8.53;;;11.10;99.90;;;;;;5160994;27;20239;-76
2022/10/12 02:24:18;;;;;;;8.70;8.50;;;11.00;99.90;;;;;;5160733;27;20223;-76
2022/10/12 02:26:50;;;;;;;8.83;8.63;;;10.90;99.90;;;;;;5160526;27;20303;-76
2022/10/12 02:29:23;;;;;;;8.47;8.27;;;10.90;99.90;;;;;;5160953;27;20299;-77
2022/10/12 02:31:57;;;;;;;8.90;8.70;;;10.90;99.90;;;;;;5160658;27;20229;-77
2022/10/12 02:34:29;;;;;;;8.70;8.50;;;10.90;99.90;;;;;;5159851;27;20226;-76
2022/10/12 02:37:05;;;;;;;8.50;8.30;;;10.90;99.90;;;;;;5160776;27;20259;-77
2022/10/12 02:39:38;;;;;;;8.43;8.23;;;10.80;99.90;;;;;;5160521;27;20239;-76
2022/10/12 02:42:12;;;;;;;8.70;8.50;;;10.70;99.90;;;;;;5160230;27;20274;-76
2022/10/12 02:44:42;;;;;;;8.47;8.27;;;10.60;99.90;;;;;;5159934;27;20291;-76
2022/10/12 02:47:13;;;;;;;8.60;8.40;;;10.60;99.90;;;;;;5160729;27;20220;-76
2022/10/12 02:49:43;;;;;;;8.33;8.13;;;10.60;99.90;;;;;;5160435;27;20702;-77
2022/10/12 02:52:11;;;;;;;8.30;8.10;;;10.60;99.90;;;;;;5160818;27;20234;-79
2022/10/12 02:54:40;;;;;;;8.30;8.10;;;10.60;99.90;;;;;;5160085;27;20310;-76
2022/10/12 02:57:07;;;;;;;8.53;8.33;;;10.60;99.90;;;;;;5137105;27;20229;-76
2022/10/12 02:59:35;;;;;;;8.63;8.43;;;10.50;99.90;;;;;;5133143;27;20296;-76
2022/10/12 03:02:02;;;;;;;8.60;8.40;;;10.30;99.90;;;;;;5136822;27;20327;-76
2022/10/12 03:04:31;;;;;;;8.50;8.30;;;10.30;99.90;;;;;;5139100;27;20231;-76
2022/10/12 03:06:59;;;;;;;8.80;8.60;;;10.20;99.90;;;;;;5139336;27;20226;-76
2022/10/12 03:09:26;;;;;;;8.47;8.27;;;10.20;99.90;;;;;;5139549;27;20242;-77
2022/10/12 03:11:54;;;;;;;8.83;8.63;;;10.20;99.90;;;;;;5139699;27;20243;-76
2022/10/12 03:14:22;;;;;;;8.77;8.57;;;10.20;99.90;;;;;;5138349;27;20234;-75
2022/10/12 03:16:49;;;;;;;8.40;8.20;;;10.20;99.90;;;;;;5138854;27;20271;-76
2022/10/12 03:19:16;;;;;;;8.73;8.53;;;10.20;99.90;;;;;;5138746;27;20288;-75
2022/10/12 03:21:45;;;;;;;9.23;8.93;;;10.10;99.90;;;;;;5139243;27;20334;-77
2022/10/12 03:24:13;;;;;;;9.20;8.90;;;10.10;99.90;;;;;;5139768;27;20319;-75
2022/10/12 03:26:40;;;;;;;8.87;8.67;;;10.00;99.90;;;;;;5138472;27;20232;-76
2022/10/12 03:29:08;;;;;;;8.60;8.40;;;10.00;99.90;;;;;;5138578;27;20228;-76
2022/10/12 03:31:36;;;;;;;8.43;8.23;;;10.00;99.90;;;;;;5139105;27;20224;-76
2022/10/12 03:34:03;;;;;;;8.30;8.10;;;10.10;99.90;;;;;;5139015;27;20256;-77
2022/10/12 03:36:31;;;;;;;8.30;8.10;;;10.10;99.90;;;;;;5137491;27;20224;-75
2022/10/12 03:39:00;;;;;;;8.30;8.10;;;10.00;99.90;;;;;;5139443;27;20318;-76
2022/10/12 03:41:27;;;;;;;8.40;8.20;;;10.00;99.90;;;;;;5138836;27;20236;-76
2022/10/12 03:43:55;;;;;;;8.30;8.10;;;10.00;99.90;;;;;;5139055;27;20228;-76
2022/10/12 03:46:22;;;;;;;8.90;8.70;;;9.90;99.90;;;;;;5138377;27;20235;-76
2022/10/12 03:48:50;;;;;;;9.20;8.90;;;9.90;99.90;;;;;;5139279;27;20228;-76
2022/10/12 03:51:18;;;;;;;8.90;8.70;;;9.90;99.90;;;;;;5137452;27;20259;-77
2022/10/12 03:53:45;;;;;;;8.80;8.60;;;9.80;99.90;;;;;;5138769;27;20255;-76
2022/10/12 03:56:14;;;;;;;8.50;8.30;;;9.80;99.90;;;;;;5138344;27;20234;-76
2022/10/12 03:58:41;;;;;;;8.77;8.57;;;9.80;99.90;;;;;;5139737;27;20228;-76
2022/10/12 04:01:09;;;;;;;8.60;8.40;;;9.70;99.90;;;;;;5139181;27;20246;-76
2022/10/12 04:03:36;;;;;;;8.77;8.57;;;9.70;99.90;;;;;;5139393;27;20236;-77
2022/10/12 04:06:04;;;;;;;9.20;8.90;;;9.70;99.90;;;;;;5139065;27;20227;-76
2022/10/12 04:08:32;;;;;;;8.80;8.60;;;9.60;99.90;;;;;;5138798;27;20228;-76
2022/10/12 04:10:59;;;;;;;8.80;8.60;;;9.60;99.90;;;;;;5138934;27;20235;-76
2022/10/12 04:13:28;;;;;;;9.00;8.70;;;9.60;99.90;;;;;;5138883;27;20239;-76
2022/10/12 04:15:55;;;;;;;9.03;8.73;;;9.50;99.90;;;;;;5137855;27;20323;-76
2022/10/12 04:18:23;;;;;;;9.30;9.00;;;9.50;99.90;;;;;;5139064;27;20230;-76
2022/10/12 04:20:50;;;;;;;9.10;8.80;;;9.50;99.90;;;;;;5138717;27;20243;-76
2022/10/12 04:23:18;;;;;;;9.30;9.00;;;9.50;99.90;;;;;;5138532;27;20289;-76
2022/10/12 04:25:45;;;;;;;9.20;8.90;;;9.50;99.90;;;;;;5135163;27;20356;-77
2022/10/12 04:28:13;;;;;;;9.00;8.70;;;9.40;99.90;;;;;;5136226;27;20232;-79
2022/10/12 04:30:41;;;;;;;9.13;8.83;;;9.40;99.90;;;;;;5147249;27;20239;-75
2022/10/12 04:33:09;;;;;;;8.70;8.50;;;9.40;99.90;;;;;;5159591;27;20231;-76
2022/10/12 04:35:36;;;;;;;8.70;8.50;;;9.30;99.90;;;;;;5168897;27;20314;-76
2022/10/12 04:38:04;;;;;;;8.80;8.60;;;9.30;99.90;;;;;;5170676;27;20251;-76
2022/10/12 04:40:32;;;;;;;9.30;9.00;;;9.30;99.90;;;;;;5159403;27;20255;-76
2022/10/12 04:42:59;;;;;;;8.97;8.70;;;9.30;99.90;;;;;;5159152;27;20240;-76
2022/10/12 04:45:27;;;;;;;8.77;8.57;;;9.20;99.90;;;;;;5158756;27;20215;-78
2022/10/12 04:47:56;;;;;;;8.67;8.47;;;9.20;99.90;;;;;;5159216;27;20231;-76
2022/10/12 04:50:24;;;;;;;8.33;8.13;;;9.20;99.90;;;;;;5158820;27;20250;-76
2022/10/12 04:52:51;;;;;;;9.20;8.90;;;9.20;99.90;;;;;;5159218;27;20234;-75
2022/10/12 04:55:19;;;;;;;8.87;8.67;;;9.20;99.90;;;;;;5157728;27;20270;-76
2022/10/12 04:57:46;;;;;;;8.70;8.50;;;9.20;99.90;;;;;;5160036;27;20231;-76
2022/10/12 05:00:15;;;;;;;8.43;8.23;;;9.20;99.90;;;;;;5158824;27;20239;-77
2022/10/12 05:02:42;;;;;;;8.30;8.10;;;9.10;99.90;;;;;;5159383;27;20289;-77
2022/10/12 05:05:11;;;;;;;8.60;8.40;;;9.10;99.90;;;;;;5139192;27;20235;-77
2022/10/12 05:07:39;;;;;;;9.07;8.77;;;9.00;99.90;;;;;;5121568;27;20568;-77
2022/10/12 05:10:08;;;;;;;9.23;8.93;;;9.00;99.90;;;;;;5122008;27;20300;-78
2022/10/12 05:12:35;;;;;;;9.23;8.93;;;9.00;99.90;;;;;;5121184;27;20315;-77
2022/10/12 05:15:03;;;;;;;9.00;8.70;;;9.00;99.90;;;;;;5120303;28;20221;-77
2022/10/12 05:17:30;;;;;;;9.30;9.00;;;8.90;99.90;;;;;;5122108;28;20300;-77
2022/10/12 05:19:58;;;;;;;9.90;9.60;;;9.00;99.90;;;;;;5121821;27;20331;-78
2022/10/12 05:22:27;;;;;;;9.87;9.57;;;8.90;99.90;;;;;;5120958;27;20236;-77
2022/10/12 05:24:54;;;;;;;9.80;9.50;;;8.90;99.90;;;;;;5120286;28;20252;-77
2022/10/12 05:27:22;;;;;;;9.70;9.40;;;8.90;99.90;;;;;;5121596;27;20239;-77
2022/10/12 05:29:49;;;;;;;9.40;9.10;;;8.80;99.90;;;;;;5120864;28;20297;-77
2022/10/12 05:32:17;;;;;;;9.73;9.43;;;8.80;99.90;;;;;;5120860;28;20228;-78
2022/10/12 05:34:44;;;;;;;9.77;9.47;;;8.80;99.90;;;;;;5120527;27;20232;-77
2022/10/12 05:37:12;;;;;;;10.30;10.00;;;8.80;99.90;;;;;;5120529;28;20237;-77
2022/10/12 05:39:41;;;;;;;9.90;9.60;;;8.90;99.90;;;;;;5120463;28;20316;-77
2022/10/12 05:42:08;;;;;;;9.90;9.60;;;8.80;99.90;;;;;;5119776;28;20239;-78
2022/10/12 05:44:36;;;;;;;10.38;10.07;;;8.90;99.90;;;;;;5119698;27;20511;-79
2022/10/12 05:47:03;;;;;;;10.07;9.77;;;8.80;99.90;;;;;;5120961;27;20225;-77
2022/10/12 05:49:31;;;;;;;10.00;9.70;;;8.90;99.90;;;;;;5120627;28;20237;-79
2022/10/12 05:51:58;;;;;;;9.97;9.67;;;9.00;99.90;;;;;;5120480;28;20243;-78
2022/10/12 05:54:26;;;;;;;9.90;9.60;;;9.00;99.90;;;;;;5120047;28;20319;-78
2022/10/12 05:56:56;;;;;;;9.70;9.40;;;9.10;99.90;;;;;;5120363;28;20244;-78
2022/10/12 05:59:23;;;;;;;10.13;9.83;;;9.20;99.90;;;;;;5120110;28;20232;-78
2022/10/12 06:01:50;;;;;;;10.27;9.97;;;9.20;99.90;;;;;;5132460;27;20232;-78
2022/10/12 06:04:18;;;;;;;9.93;9.63;;;9.20;99.90;;;;;;5140802;27;20236;-77
2022/10/12 06:06:46;;;;;;;10.13;9.83;;;9.20;99.90;;;;;;5138504;27;20310;-78
2022/10/12 06:09:14;;;;;;;10.10;9.80;;;9.20;99.90;;;;;;5137610;27;20232;-76
2022/10/12 06:11:41;;;;;;;10.00;9.70;;;9.10;99.90;;;;;;5133357;27;20224;-77
2022/10/12 06:14:10;;;;;;;9.93;9.63;;;9.10;99.90;;;;;;5140367;27;20288;-76
2022/10/12 06:16:37;;;;;;;9.97;9.67;;;9.20;99.90;;;;;;5137250;27;20296;-76
2022/10/12 06:19:05;;;;;;;9.83;9.53;;;9.30;99.90;;;;;;5129166;27;20338;-77
2022/10/12 06:21:32;;;;;;;9.90;9.60;;;9.30;99.90;;;;;;5137079;27;20229;-76
2022/10/12 06:24:00;;;;;;;9.90;9.60;;;9.30;99.90;;;;;;5120807;27;20290;-78
2022/10/12 06:26:28;;;;;;;9.83;9.53;;;9.30;99.90;;;;;;5141090;27;20231;-78
2022/10/12 06:28:55;;;;;;;9.93;9.63;;;9.40;99.90;;;;;;5125307;27;20228;-78
2022/10/12 06:31:24;;;;;;;9.83;9.53;;;9.50;99.90;;;;;;5126351;27;20228;-78
2022/10/12 06:33:52;;;;;;;9.77;9.47;;;9.50;99.90;;;;;;5132754;27;20235;-78
2022/10/12 06:36:20;;;;;;;9.90;9.60;;;9.60;99.90;;;;;;5127933;27;20228;-77
2022/10/12 06:38:47;;;;;;;9.70;9.40;;;9.60;99.90;;;;;;5118511;27;20217;-77
2022/10/12 06:41:15;;;;;;;9.60;9.30;;;9.70;99.90;;;;;;5137328;27;20731;-77
2022/10/12 06:43:42;;;;;;;9.70;9.40;;;9.70;99.90;;;;;;5136746;27;20236;-79
2022/10/12 06:46:12;;;;;;;9.57;9.27;;;9.80;99.90;;;;;;5137698;27;20232;-80
2022/10/12 06:48:41;;;;;;;9.47;9.17;;;9.80;99.90;;;;;;5142638;27;20247;-82
2022/10/12 06:51:09;;;;;;;9.27;8.97;;;9.90;99.90;;;;;;5133387;27;20313;-83
2022/10/12 06:53:36;;;;;;;9.80;9.50;;;10.00;99.90;;;;;;5133800;27;20277;-79
2022/10/12 06:56:07;;;;;;;9.40;9.10;;;10.00;99.90;;;;;;5139276;27;20239;-79
2022/10/12 06:58:34;;;;;;;9.73;9.43;;;10.10;99.90;;;;;;5142362;27;20213;-79
2022/10/12 07:01:03;;;;;;;9.60;9.30;;;10.00;99.90;;;;;;5141622;27;20259;-79
2022/10/12 07:03:32;;;;;;;9.80;9.50;;;10.00;99.90;;;;;;5140994;28;20221;-77
2022/10/12 07:06:09;;;;;;;9.67;9.37;;;9.90;99.90;;;;;;5141513;27;20280;-76
2022/10/12 07:08:37;;;;;;;9.20;8.90;;;9.90;99.90;;;;;;5142574;27;20236;-77
2022/10/12 07:11:07;;;;;;;9.40;9.10;;;10.00;99.90;;;;;;5140751;28;20347;-77
2022/10/12 07:13:35;;;;;;;9.17;8.87;;;10.10;99.90;;;;;;5139951;28;20216;-78
2022/10/12 07:16:04;;;;;;;9.20;8.90;;;10.10;99.90;;;;;;5139648;27;20197;-80
2022/10/12 07:18:31;;;;;;;8.90;8.70;;;10.20;99.90;;;;;;5137927;27;20233;-78
2022/10/12 07:21:01;;;;;;;9.07;8.77;;;10.20;99.90;;;;;;5129747;28;20228;-80
2022/10/12 07:23:30;;;;;;;8.70;8.50;;;10.30;99.90;;;;;;5129806;28;20217;-78
2022/10/12 07:25:58;;;;;;;8.60;8.40;;;10.40;99.90;;;;;;5131018;27;20228;-78
2022/10/12 07:28:27;;;;;;;8.83;8.63;;;10.60;99.90;;;;;;5127889;27;20258;-78
2022/10/12 07:30:55;;;;;;;8.73;8.53;;;10.60;99.90;;;;;;5133116;27;20304;-78
2022/10/12 07:33:22;;;;;;;8.87;8.67;;;10.80;99.90;;;;;;5161158;27;20762;-77
2022/10/12 07:35:56;;;;;;;9.00;8.70;;;10.90;99.90;;;;;;5161205;27;20223;-78
2022/10/12 07:38:24;;;;;;;8.70;8.50;;;11.00;99.90;;;;;;5160603;27;20216;-79
2022/10/12 07:40:53;;;;;;;9.13;8.83;;;11.10;99.90;;;;;;5146184;27;20287;-78
2022/10/12 07:43:21;;;;;;;9.00;8.70;;;11.30;99.90;;;;;;5164907;27;20232;-78
2022/10/12 07:45:48;;;;;;;9.07;8.77;;;11.40;99.90;;;;;;5164241;27;20231;-78
2022/10/12 07:48:15;;;;;;;9.30;9.00;;;11.50;99.90;;;;;;5160643;27;20314;-80
2022/10/12 07:50:43;;;;;;;9.23;8.93;;;11.60;99.90;;;;;;5160833;27;20242;-82
2022/10/12 07:53:10;;;;;;;9.40;9.10;;;11.70;99.90;;;;;;5162401;27;20299;-78
2022/10/12 07:55:38;;;;;;;9.23;8.93;;;11.80;99.90;;;;;;5161846;27;20266;-79
2022/10/12 07:58:07;;;;;;;9.27;8.97;;;11.90;99.90;;;;;;5162117;27;20224;-79
2022/10/12 08:00:35;;;;;;;9.60;9.30;;;12.00;99.90;;;;;;5138432;27;20236;-77
2022/10/12 08:03:02;;;;;;;9.43;9.13;;;12.20;99.90;;;;;;5140023;27;20315;-78
2022/10/12 08:05:29;;;;;;;9.20;8.90;;;12.30;99.90;;;;;;5139838;27;20281;-79
2022/10/12 08:08:04;;;;;;;8.80;8.60;;;12.40;99.90;;;;;;5125441;27;20240;-78
2022/10/12 08:10:35;;;;;;;9.20;8.90;;;12.50;99.90;;;;;;5118047;28;20232;-78
2022/10/12 08:13:02;;;;;;;8.70;8.50;;;12.60;99.90;;;;;;5118228;28;20315;-78
2022/10/12 08:15:32;;;;;;;8.87;8.67;;;12.70;99.90;;;;;;5117470;28;20260;-78
2022/10/12 08:17:59;;;;;;;9.10;8.80;;;12.90;99.90;;;;;;5119513;28;20232;-80
2022/10/12 08:20:27;;;;;;;9.37;9.07;;;13.00;99.90;;;;;;5118088;28;20235;-79
2022/10/12 08:22:55;;;;;;;8.80;8.60;;;13.10;99.90;;;;;;5118584;27;20235;-80
2022/10/12 08:25:22;;;;;;;9.07;8.77;;;13.00;99.90;;;;;;5119063;28;20237;-79
2022/10/12 08:27:50;;;;;;;9.63;9.33;;;13.00;99.90;;;;;;5118015;27;20240;-79
2022/10/12 08:30:17;;;;;;;9.40;9.10;;;13.10;99.90;;;;;;5117733;28;20236;-79
2022/10/12 08:32:46;;;;;;;8.90;8.70;;;13.30;99.90;;;;;;5119640;27;20229;-79
2022/10/12 08:35:14;;;;;;;9.50;9.20;;;13.60;99.90;;;;;;5118381;27;20231;-80
2022/10/12 08:37:42;;;;;;;9.50;9.20;;;13.80;99.90;;;;;;5119315;28;20288;-79
2022/10/12 08:40:16;;;;;;;9.50;9.20;;;13.90;99.90;;;;;;5118918;28;20221;-79
2022/10/12 08:42:54;;;;;;;9.50;9.20;;;14.00;99.90;;;;;;5117649;28;20251;-79
2022/10/12 08:45:49;;;;;;;9.30;9.00;;;14.30;99.90;;;;;;5118349;28;20236;-81
2022/10/12 08:48:23;;;;;;;9.40;9.10;;;14.60;99.90;;;;;;5120644;28;20279;-80
2022/10/12 08:50:54;;;;;;;9.40;9.10;;;14.70;99.90;;;;;;5119802;28;20319;-80
2022/10/12 08:53:26;;;;;;;9.17;8.87;;;14.90;99.90;;;;;;5119699;28;20227;-80
2022/10/12 08:55:55;;;;;;;9.25;8.95;;;15.10;99.90;;;;;;5120571;28;20224;-80
2022/10/12 08:58:29;;;;;;;9.60;9.30;;;15.30;99.90;;;;;;5120247;28;20280;-81
2022/10/12 09:01:05;;;;;;;9.15;8.85;;;15.30;99.90;;;;;;5117476;28;20262;-81
2022/10/12 09:03:47;;;;;;;9.50;9.20;;;15.40;99.90;;;;;;5119458;28;20220;-80
2022/10/12 09:06:19;;;;;;;9.70;9.40;;;15.50;99.90;;;;;;5117605;28;20231;-80
2022/10/12 09:09:03;;;;;;;9.50;9.20;;;15.50;99.90;;;;;;5119243;28;20300;-80
2022/10/12 09:11:51;;;;;;;9.60;9.30;;;15.70;99.90;;;;;;5119195;28;20233;-81
2022/10/12 09:14:25;;;;;;;9.38;9.07;;;15.80;99.90;;;;;;5118894;27;20290;-80
2022/10/12 09:16:56;;;;;;;9.57;9.27;;;15.90;99.90;;;;;;5119318;28;20314;-81
2022/10/12 09:19:33;;;;;;;9.40;9.10;;;16.00;99.90;;;;;;5118721;28;20282;-79
2022/10/12 09:22:03;;;;;;;8.95;8.75;;;16.00;99.90;;;;;;5116986;28;20288;-79
2022/10/12 09:24:38;;;;;;;9.02;8.77;;;16.10;99.90;;;;;;5117027;28;20229;-79
2022/10/12 09:27:16;;;;;;;9.25;8.95;;;16.00;99.90;;;;;;5117579;28;20232;-78
2022/10/12 09:29:47;;;;;;;9.70;9.40;;;16.10;99.90;;;;;;5116786;28;20238;-79
2022/10/12 09:33:03;;;;;;;9.80;9.50;;;16.40;99.90;;;;;;5119389;27;20227;-78
2022/10/12 09:35:33;;;;;;;9.63;9.32;;;16.70;99.90;;;;;;5120503;27;20219;-79
2022/10/12 09:38:02;;;;;;;9.43;9.13;;;17.00;99.90;;;;;;5136326;27;20243;-78
2022/10/12 09:40:33;;;;;;;9.50;9.20;;;17.10;99.90;;;;;;5135709;27;20236;-79
2022/10/12 09:43:03;;;;;;;9.60;9.30;;;17.10;99.90;;;;;;5136901;27;20232;-78
2022/10/12 09:45:34;;;;;;;10.00;9.70;;;17.00;99.90;;;;;;5136977;27;20243;-79
2022/10/12 09:48:13;;;;;;;9.65;9.35;;;16.90;99.90;;;;;;5138100;27;20307;-78
2022/10/12 09:50:48;;;;;;;9.82;9.52;;;17.10;99.90;;;;;;5139693;27;20238;-78
2022/10/12 09:53:41;;;;;;;9.88;9.57;;;17.40;99.90;;;;;;5141343;27;20279;-78
2022/10/12 09:56:23;;;;;;;10.07;9.77;;;17.50;99.90;;;;;;5137590;27;20228;-78
2022/10/12 09:58:54;;;;;;;9.75;9.45;;;17.80;99.90;;;;;;5140828;27;20238;-78
2022/10/12 10:01:25;;;;;;;10.10;9.80;;;18.00;99.90;;;;;;5140386;27;20236;-77
2022/10/12 10:04:14;;;;;;;9.57;9.27;;;18.10;99.90;;;;;;5141071;27;20253;-78
2022/10/12 10:06:46;;;;;;;9.77;9.48;;;18.30;99.90;;;;;;5139854;27;20259;-78
2022/10/12 10:09:29;;;;;;;9.90;9.60;;;18.50;99.90;;;;;;5140958;27;20258;-78
2022/10/12 10:11:58;;;;;;;9.70;9.40;;;18.60;99.90;;;;;;5141559;27;20730;-78
2022/10/12 10:14:26;;;;;;;10.02;9.73;;;18.50;99.90;;;;;;5131570;27;20262;-80
2022/10/12 10:16:54;;;;;;;9.93;9.63;;;18.20;99.90;;;;;;5135127;27;20223;-80
2022/10/12 10:19:25;;;;;;;9.80;9.50;;;18.00;99.90;;;;;;5128678;27;20247;-78
2022/10/12 10:21:55;;;;;;;10.00;9.70;;;18.10;99.90;;;;;;5123971;27;20235;-80
2022/10/12 10:24:28;;;;;;;9.90;9.60;;;18.20;99.90;;;;;;5128476;27;20244;-78
2022/10/12 10:26:59;;;;;;;9.68;9.38;;;18.50;99.90;;;;;;5129779;27;20224;-80
2022/10/12 10:29:38;;;;;;;9.85;9.55;;;18.60;99.90;;;;;;5131899;27;20301;-79
2022/10/12 10:32:27;;;;;;;10.15;9.85;;;18.70;99.90;;;;;;5142348;27;20228;-78
2022/10/12 10:35:04;;;;;;;9.90;9.60;;;19.10;99.90;;;;;;5140823;27;20699;-78
2022/10/12 10:37:33;;;;;;;9.30;9.00;;;19.30;99.90;;;;;;5141842;27;20228;-77
2022/10/12 10:40:01;;;;;;;9.73;9.43;;;19.40;99.90;;;;;;5139725;27;20240;-78
2022/10/12 10:42:32;;;;;;;9.90;9.60;;;19.40;99.90;;;;;;5139380;27;20224;-78
2022/10/12 10:45:02;;;;;;;10.10;9.80;;;19.40;99.90;;;;;;5140259;27;20240;-77
2022/10/12 10:47:33;;;;;;;10.23;9.93;;;19.50;99.90;;;;;;5141272;27;20272;-79
2022/10/12 10:50:03;;;;;;;9.95;9.65;;;19.80;99.90;;;;;;5139720;27;20318;-77
2022/10/12 10:52:35;;;;;;;10.20;9.90;;;19.90;99.90;;;;;;5145450;27;20335;-79
2022/10/12 10:55:20;;;;;;;10.30;10.00;;;19.80;99.90;;;;;;5143185;27;20224;-79
2022/10/12 10:57:57;;;;;;;10.20;9.90;;;20.00;99.90;;;;;;5146477;27;20232;-78
2022/10/12 11:00:24;;;;;;;10.10;9.80;;;20.20;99.90;;;;;;5146917;27;20299;-79
2022/10/12 11:02:55;;;;;;;9.80;9.50;;;20.40;99.90;;;;;;5138820;27;20319;-79
2022/10/12 11:05:27;;;;;;;10.00;9.70;;;20.60;99.90;;;;;;5132534;27;20294;-79
2022/10/12 11:08:00;;;;;;;9.90;9.60;;;20.70;99.90;;;;;;5122304;27;20213;-79
2022/10/12 11:10:34;;;;;;;10.27;9.98;;;20.80;99.90;;;;;;5124859;27;20232;-79
2022/10/12 11:13:07;;;;;;;10.20;9.90;;;20.90;99.90;;;;;;5138929;27;20236;-80
2022/10/12 11:41:56;;;;;;;10.10;9.80;;;21.50;99.90;;;;;;4921223;29;20306;-82
2022/10/12 11:51:11;;;;;;;10.30;10.00;;;21.70;99.90;;;;;;4915813;28;20252;-81
2022/10/12 11:53:48;;;;;;;10.20;9.90;;;21.90;99.90;;;;;;5075633;28;20320;-82
2022/10/12 11:56:27;;;;;;;10.30;10.00;;;21.60;99.90;;;;;;5103777;28;20233;-79
2022/10/12 11:59:32;;;;;;;9.68;9.38;;;21.70;99.90;;;;;;5115598;28;20240;-79
2022/10/12 12:41:59;;;;;;;10.15;9.85;;;22.70;99.90;;;;;;4998239;28;20232;-80
2022/10/12 12:45:01;;;;;;;10.35;10.05;;;22.80;99.90;;;;;;5075147;28;20237;-80
2022/10/12 13:14:08;;;;;;;10.38;10.07;;;24.00;99.90;;;;;;4986034;28;20227;-79
2022/10/12 13:20:36;;;;;;;10.05;9.75;;;23.40;99.90;;;;;;5136786;28;20230;-78
2022/10/12 13:23:21;;;;;;;10.32;10.02;;;23.50;99.90;;;;;;5119428;28;20237;-80
2022/10/12 13:30:22;;;;;;;10.23;9.93;;;23.60;99.90;;;;;;4906294;28;20273;-79
2022/10/12 13:34:00;;;;;;;10.30;10.00;;;23.60;99.90;;;;;;5027680;28;20208;-79
2022/10/12 13:37:31;;;;;;;10.25;9.95;;;23.40;99.90;;;;;;5025093;28;20303;-79
2022/10/12 13:44:45;;;;;;;9.95;9.65;;;23.70;99.90;;;;;;4892096;29;20247;-83
2022/10/12 14:14:48;;;;;;;9.75;9.45;;;23.40;99.90;;;;;;5083508;28;20246;-84
2022/10/12 14:17:25;;;;;;;10.20;9.90;;;23.60;99.90;;;;;;5086793;28;20230;-85
2022/10/12 14:20:05;;;;;;;;;;;;;;;;;;;;;
2022/10/12 14:22:48;;;;;;;10.05;9.75;;;23.30;99.90;;;;;;5093993;28;20236;-86
2022/10/12 14:26:05;;;;;;;10.10;9.80;;;23.10;99.90;;;;;;5105853;28;20292;-84
2022/10/12 14:29:40;;;;;;;10.23;9.93;;;23.20;99.90;;;;;;5105832;28;20263;-83
2022/10/12 15:33:23;;;;;;;10.50;10.20;;;21.30;99.90;;;;;;5117562;27;20256;-81
2022/10/12 16:50:01;;;;;;;8.82;8.63;;;15.90;99.90;;;;;;5052905;28;20238;-81
2022/10/12 16:53:34;;;;;;;8.45;8.25;;;15.70;99.90;;;;;;4999591;28;20217;-83
2022/10/12 17:00:59;;;;;;;8.38;8.18;;;15.40;99.90;;;;;;5115669;28;20275;-82
2022/10/12 17:07:18;;;;;;;8.60;8.40;;;15.20;99.90;;;;;;5086683;28;20441;-81
2022/10/12 17:10:01;;;;;;;;;;;;;;;;;;;;;
2022/10/12 17:12:49;;;;;;;8.70;8.50;;;15.10;99.90;;;;;;5098777;28;20248;-80
2022/10/12 17:15:39;;;;;;;8.30;8.10;;;15.10;99.90;;;;;;5127037;28;20236;-80
2022/10/12 17:18:56;;;;;;;8.40;8.20;;;15.00;99.90;;;;;;5127938;28;20232;-82
2022/10/12 17:21:30;;;;;;;8.50;8.30;;;15.00;99.90;;;;;;5112871;28;20239;-80
2022/10/12 17:24:51;;;;;;;8.15;7.95;;;14.90;99.90;;;;;;5124668;28;20281;-81
2022/10/12 17:27:23;;;;;;;8.13;7.93;;;14.80;99.90;;;;;;5125574;28;20236;-82
2022/10/12 17:30:10;;;;;;;8.33;8.13;;;14.70;99.90;;;;;;5126673;28;20232;-82
2022/10/12 17:35:38;;;;;;;8.55;8.35;;;14.60;99.90;;;;;;5124493;28;20239;-82
2022/10/12 17:38:13;;;;;;;8.40;8.20;;;14.50;99.90;;;;;;5108324;28;20252;-82
2022/10/12 17:41:14;;;;;;;8.23;8.03;;;14.40;99.90;;;;;;5106242;28;20255;-80
2022/10/12 17:44:24;;;;;;;8.40;8.20;;;14.40;99.90;;;;;;5102971;28;20220;-81
2022/10/12 17:51:11;;;;;;;8.10;7.90;;;14.20;99.90;;;;;;4964212;28;20241;-80
2022/10/12 17:53:48;;;;;;;8.50;8.30;;;14.10;99.90;;;;;;5002765;28;20229;-83
2022/10/12 17:56:19;;;;;;;8.40;8.20;;;14.10;99.90;;;;;;5115669;28;20262;-81
2022/10/12 17:58:49;;;;;;;8.20;8.00;;;14.00;99.90;;;;;;5123815;28;20221;-80
2022/10/12 18:01:25;;;;;;;8.13;7.93;;;13.90;99.90;;;;;;5123848;28;20235;-81
2022/10/12 18:04:24;;;;;;;8.20;8.00;;;13.90;99.90;;;;;;5096154;28;20310;-82
2022/10/12 18:07:45;;;;;;;7.80;7.60;;;13.80;99.90;;;;;;5083901;28;20229;-81
2022/10/12 18:10:22;;;;;;;7.90;7.70;;;13.80;99.90;;;;;;5051728;28;20304;-80
2022/10/12 18:13:01;;;;;;;7.90;7.70;;;13.70;99.90;;;;;;5079432;28;20284;-81